Aérodrome :
LOGIN :

S'inscrire | Disclaimer

   EN    FR    IT 

 










Légende :    VFR   VFR Marginal   IFR   IFR Intensif   IFR Très Intensif
Visi : 
Plafond : 
>= 8 km
>= 3000ft
5 à 8 km
1000 à 3000 ft
1500m à 5 km
500 à 1000 ft
800 à 1500m
200 à 500 ft
< 800m
< 200 ft
Symboles :   Orages  Brouillard  Fortes neiges  Fortes précipitations  Vent > 20 kt
SIGMETs :   Divers  Orages  Givrage  Turbulence  Onde Orograph.  Cendres Volcan.






- Altitude de l'aérodrome : 1046 ft
- Code IATA : NUE


EDDN - Nuremberg

DERNIER METAR :
  • 021950Z 27003KT 230V300 CAVOK 06/M04 Q1010 NOSIG

METARs EXPIRÉS :
  • 021920Z 25004KT CAVOK 07/M04 Q1010 NOSIG
  • 021850Z 25003KT CAVOK 09/M04 Q1009 NOSIG
  • 021820Z 27004KT CAVOK 09/M04 Q1009 NOSIG
  • 021750Z 29005KT CAVOK 10/M05 Q1009 NOSIG
  • 021720Z 30007KT CAVOK 12/M05 Q1009 NOSIG

TAF TAF EDDN
Valide du 02 à 18h jusqu'au 03 à 18h UTC


021700Z 0218/0318 28006KT CAVOK
BECMG 0218/0220 VRB03KT
BECMG 0307/0309 26008KT
PROB30
TEMPO 0312/0316 SHRA BKN030TCU



MET'MAP, la Météo Aéronautique d'un coup d'oeil ! - Copyright ORBIFLY Décembre 2007 - Disclaimer

ORBIFLY MET'MAP TEAM :

Programmation & Développement : Alexandra Zaïnal
Sur une idée originale de : Baudouin d'Aumeries
Assistance à la programmation : Marc-Olivier Méhu
Soutien technique & logistique : Manuel Goepfert

Contact : metmap@orbifly.com




SOURCES & CREDITS :

   NOAA